BAW556Q EGLL-LIRF
Flight info
| Callsign | BAW556Q |
|---|---|
| Flight time | N/A |
| Altitude | 39000 |
| Route | MAXIT Y803 MID L612 BOGNA UL612 OGULO DCT OKASI DCT OKEKO DCT MOU DCT MADIV DCT MOKIP DCT TUFTA DCT KOGAS DCT MEDAM DCT NITAM DCT MOGBO DCT ELB/N0445F380 DCT ELKAP |
| Aircraft | A20N/M-SDE2E3FGHIRWXY/LB1 |
Departure
| Time | 2026-05-04 13:05 |
|---|---|
| Airport | London Heathrow Airport (EGLL) |
Arrival
| Time | N/A |
|---|---|
| Airport | Rome–Fiumicino Leonardo da Vinci International Airport (LIRF) |
| Time | Latitude | Longitude | Altitude | Speed | Heading |
|---|---|---|---|---|---|
| 2026-05-04 12:30 | 51.47271 | -0.48574 | 86 ft | 0 kts | 270° |
| 2026-05-04 12:53 | 51.47271 | -0.48564 | 84 ft | 4 kts | 268° |
| 2026-05-04 12:54 | 51.47274 | -0.48521 | 84 ft | 4 kts | 252° |
| 2026-05-04 12:54 | 51.47286 | -0.48485 | 90 ft | 4 kts | 212° |
| 2026-05-04 12:54 | 51.47300 | -0.48477 | 86 ft | 1 kts | 178° |
| 2026-05-04 12:54 | 51.47302 | -0.48477 | 86 ft | 0 kts | 178° |
| 2026-05-04 12:56 | 51.47298 | -0.48477 | 86 ft | 2 kts | 178° |
| 2026-05-04 12:56 | 51.47267 | -0.48475 | 88 ft | 7 kts | 179° |
| 2026-05-04 12:57 | 51.47206 | -0.48475 | 84 ft | 11 kts | 181° |
| 2026-05-04 12:57 | 51.47118 | -0.48476 | 84 ft | 15 kts | 180° |
| 2026-05-04 12:57 | 51.47004 | -0.48475 | 84 ft | 18 kts | 179° |
| 2026-05-04 12:57 | 51.46869 | -0.48472 | 88 ft | 21 kts | 179° |
| 2026-05-04 12:58 | 51.46769 | -0.48470 | 84 ft | 15 kts | 180° |
| 2026-05-04 12:58 | 51.46667 | -0.48447 | 89 ft | 13 kts | 139° |
| 2026-05-04 12:58 | 51.46653 | -0.48299 | 87 ft | 15 kts | 90° |
| 2026-05-04 12:58 | 51.46653 | -0.48106 | 86 ft | 19 kts | 89° |
| 2026-05-04 12:59 | 51.46653 | -0.47870 | 82 ft | 23 kts | 89° |
| 2026-05-04 12:59 | 51.46656 | -0.47597 | 82 ft | 26 kts | 89° |
| 2026-05-04 12:59 | 51.46657 | -0.47362 | 82 ft | 20 kts | 89° |
| 2026-05-04 12:59 | 51.46657 | -0.47134 | 84 ft | 20 kts | 90° |
| 2026-05-04 13:00 | 51.46658 | -0.46955 | 88 ft | 16 kts | 89° |
| 2026-05-04 13:00 | 51.46660 | -0.46772 | 92 ft | 17 kts | 90° |
| 2026-05-04 13:00 | 51.46659 | -0.46574 | 92 ft | 20 kts | 90° |
| 2026-05-04 13:00 | 51.46660 | -0.46343 | 90 ft | 22 kts | 89° |
| 2026-05-04 13:01 | 51.46659 | -0.46101 | 85 ft | 25 kts | 89° |
| 2026-05-04 13:01 | 51.46662 | -0.45811 | 81 ft | 27 kts | 89° |
| 2026-05-04 13:01 | 51.46663 | -0.45511 | 82 ft | 27 kts | 90° |
| 2026-05-04 13:01 | 51.46664 | -0.45215 | 86 ft | 26 kts | 89° |
| 2026-05-04 13:02 | 51.46664 | -0.44924 | 89 ft | 26 kts | 90° |
| 2026-05-04 13:02 | 51.46666 | -0.44638 | 88 ft | 26 kts | 89° |
| 2026-05-04 13:02 | 51.46666 | -0.44350 | 85 ft | 23 kts | 90° |
| 2026-05-04 13:02 | 51.46667 | -0.44132 | 82 ft | 11 kts | 90° |
| 2026-05-04 13:03 | 51.46635 | -0.44059 | 83 ft | 8 kts | 167° |
| 2026-05-04 13:03 | 51.46570 | -0.44055 | 83 ft | 11 kts | 180° |
| 2026-05-04 13:03 | 51.46501 | -0.44089 | 86 ft | 11 kts | 236° |
| 2026-05-04 13:03 | 51.46494 | -0.44151 | 82 ft | 1 kts | 271° |
| 2026-05-04 13:04 | 51.46494 | -0.44177 | 83 ft | 7 kts | 270° |
| 2026-05-04 13:04 | 51.46494 | -0.44529 | 87 ft | 66 kts | 270° |
| 2026-05-04 13:04 | 51.46490 | -0.45600 | 81 ft | 126 kts | 269° |
| 2026-05-04 13:04 | 51.46482 | -0.47258 | 146 ft | 164 kts | 269° |
| 2026-05-04 13:05 | 51.46473 | -0.49112 | 651 ft | 167 kts | 270° |
| 2026-05-04 13:05 | 51.46452 | -0.50987 | 1281 ft | 169 kts | 267° |
| 2026-05-04 13:05 | 51.46317 | -0.52842 | 1868 ft | 172 kts | 257° |
| 2026-05-04 13:05 | 51.45928 | -0.54627 | 2490 ft | 172 kts | 241° |
| 2026-05-04 13:06 | 51.45337 | -0.56197 | 2977 ft | 185 kts | 239° |
| 2026-05-04 13:06 | 51.44640 | -0.58028 | 3495 ft | 205 kts | 239° |
| 2026-05-04 13:06 | 51.43886 | -0.60054 | 4035 ft | 222 kts | 237° |
| 2026-05-04 13:06 | 51.42700 | -0.61790 | 4587 ft | 244 kts | 205° |
| 2026-05-04 13:07 | 51.40995 | -0.62359 | 5281 ft | 262 kts | 176° |
| 2026-05-04 13:07 | 51.39288 | -0.61666 | 6242 ft | 268 kts | 159° |
| 2026-05-04 13:07 | 51.37594 | -0.60456 | 7285 ft | 271 kts | 156° |
| 2026-05-04 13:07 | 51.35909 | -0.59226 | 8296 ft | 275 kts | 158° |
| 2026-05-04 13:08 | 51.34123 | -0.58042 | 9331 ft | 279 kts | 160° |
| 2026-05-04 13:08 | 51.32305 | -0.56953 | 10318 ft | 283 kts | 161° |
| 2026-05-04 13:08 | 51.31666 | -0.56591 | 10556 ft | 289 kts | 162° |
| 2026-05-04 13:08 | 51.30476 | -0.56087 | 10818 ft | 303 kts | 170° |
| 2026-05-04 13:09 | 51.29053 | -0.55839 | 11071 ft | 318 kts | 179° |
| 2026-05-04 13:09 | 51.26206 | -0.56382 | 11860 ft | 334 kts | 191° |
| 2026-05-04 13:09 | 51.24017 | -0.56935 | 12750 ft | 337 kts | 188° |
| 2026-05-04 13:09 | 51.21853 | -0.57434 | 13596 ft | 341 kts | 189° |
| 2026-05-04 13:10 | 51.20318 | -0.57823 | 14138 ft | 344 kts | 190° |
| 2026-05-04 13:10 | 51.18017 | -0.58470 | 14948 ft | 347 kts | 191° |
| 2026-05-04 13:10 | 51.15759 | -0.59158 | 15738 ft | 350 kts | 191° |
| 2026-05-04 13:10 | 51.13607 | -0.59840 | 16469 ft | 353 kts | 191° |
| 2026-05-04 13:11 | 51.11314 | -0.60580 | 17230 ft | 356 kts | 191° |
| 2026-05-04 13:11 | 51.08959 | -0.61341 | 18009 ft | 360 kts | 191° |
| 2026-05-04 13:11 | 51.06665 | -0.61642 | 18663 ft | 363 kts | 176° |
| 2026-05-04 13:11 | 51.04218 | -0.60843 | 19306 ft | 368 kts | 160° |
| 2026-05-04 13:12 | 51.02033 | -0.58974 | 19930 ft | 374 kts | 148° |
| 2026-05-04 13:12 | 50.99884 | -0.56669 | 20555 ft | 379 kts | 148° |
| 2026-05-04 13:12 | 50.97701 | -0.54312 | 21191 ft | 383 kts | 148° |
| 2026-05-04 13:12 | 50.95769 | -0.52235 | 21752 ft | 386 kts | 148° |
| 2026-05-04 13:13 | 50.93542 | -0.49851 | 22384 ft | 391 kts | 148° |
| 2026-05-04 13:13 | 50.91272 | -0.47431 | 23000 ft | 395 kts | 148° |
| 2026-05-04 13:13 | 50.88979 | -0.44993 | 23598 ft | 400 kts | 149° |
| 2026-05-04 13:13 | 50.86672 | -0.42544 | 24204 ft | 400 kts | 149° |
| 2026-05-04 13:14 | 50.84358 | -0.40089 | 24839 ft | 401 kts | 149° |
| 2026-05-04 13:14 | 50.82060 | -0.37656 | 25363 ft | 404 kts | 149° |
| 2026-05-04 13:14 | 50.79715 | -0.35178 | 25895 ft | 406 kts | 149° |
| 2026-05-04 13:14 | 50.77377 | -0.32710 | 26416 ft | 408 kts | 149° |
| 2026-05-04 13:15 | 50.75001 | -0.30205 | 26931 ft | 410 kts | 149° |
| 2026-05-04 13:15 | 50.72628 | -0.27707 | 27433 ft | 413 kts | 149° |
| 2026-05-04 13:15 | 50.70254 | -0.25210 | 27909 ft | 415 kts | 149° |
| 2026-05-04 13:15 | 50.67847 | -0.22681 | 28373 ft | 417 kts | 149° |
| 2026-05-04 13:16 | 50.65413 | -0.20127 | 28835 ft | 419 kts | 149° |
| 2026-05-04 13:16 | 50.62974 | -0.17571 | 29339 ft | 420 kts | 149° |
| 2026-05-04 13:16 | 50.60555 | -0.15040 | 29757 ft | 422 kts | 149° |
| 2026-05-04 13:16 | 50.58106 | -0.12480 | 30143 ft | 425 kts | 149° |
| 2026-05-04 13:17 | 50.55633 | -0.09899 | 30496 ft | 427 kts | 149° |
| 2026-05-04 13:17 | 50.53168 | -0.07329 | 30840 ft | 429 kts | 149° |
| 2026-05-04 13:17 | 50.50665 | -0.04724 | 31202 ft | 431 kts | 149° |
| 2026-05-04 13:17 | 50.48161 | -0.02120 | 31637 ft | 431 kts | 149° |
| 2026-05-04 13:18 | 50.45653 | 0.00484 | 32045 ft | 431 kts | 149° |
| 2026-05-04 13:18 | 50.43184 | 0.03044 | 32466 ft | 431 kts | 149° |
| 2026-05-04 13:18 | 50.40706 | 0.05610 | 32944 ft | 429 kts | 149° |
| 2026-05-04 13:18 | 50.38216 | 0.08184 | 33416 ft | 427 kts | 149° |
| 2026-05-04 13:19 | 50.35735 | 0.10747 | 33862 ft | 426 kts | 149° |
| 2026-05-04 13:19 | 50.33289 | 0.13269 | 34223 ft | 426 kts | 149° |
| 2026-05-04 13:19 | 50.30806 | 0.15827 | 34490 ft | 427 kts | 149° |
| 2026-05-04 13:19 | 50.28323 | 0.18382 | 34761 ft | 428 kts | 149° |
| 2026-05-04 13:20 | 50.25817 | 0.20958 | 35026 ft | 429 kts | 149° |
| 2026-05-04 13:20 | 50.23350 | 0.23490 | 35275 ft | 430 kts | 149° |
| 2026-05-04 13:20 | 50.20837 | 0.26066 | 35528 ft | 431 kts | 149° |
| 2026-05-04 13:20 | 50.18331 | 0.28637 | 35760 ft | 433 kts | 148° |
| 2026-05-04 13:21 | 50.15804 | 0.31236 | 35979 ft | 434 kts | 148° |
| 2026-05-04 13:21 | 50.13279 | 0.33834 | 36222 ft | 435 kts | 148° |
| 2026-05-04 13:21 | 50.10752 | 0.36429 | 36458 ft | 436 kts | 148° |
| 2026-05-04 13:21 | 50.08244 | 0.39000 | 36687 ft | 437 kts | 148° |
| 2026-05-04 13:22 | 50.05698 | 0.41607 | 36911 ft | 438 kts | 148° |
| 2026-05-04 13:22 | 50.03151 | 0.44211 | 37143 ft | 438 kts | 148° |
| 2026-05-04 13:22 | 50.00590 | 0.46826 | 37357 ft | 438 kts | 149° |
| 2026-05-04 13:22 | 49.98039 | 0.49427 | 37617 ft | 439 kts | 149° |
| 2026-05-04 13:23 | 49.95473 | 0.52039 | 37791 ft | 440 kts | 149° |
| 2026-05-04 13:23 | 49.92935 | 0.54621 | 37976 ft | 441 kts | 149° |
| 2026-05-04 13:23 | 49.90353 | 0.57242 | 38168 ft | 442 kts | 149° |
| 2026-05-04 13:23 | 49.87785 | 0.59847 | 38360 ft | 443 kts | 149° |
| 2026-05-04 13:24 | 49.85266 | 0.62506 | 38546 ft | 444 kts | 145° |
| 2026-05-04 13:24 | 49.82846 | 0.65512 | 38712 ft | 446 kts | 143° |
| 2026-05-04 13:24 | 49.80431 | 0.68573 | 38870 ft | 446 kts | 143° |
| 2026-05-04 13:25 | 49.75645 | 0.74613 | 38988 ft | 445 kts | 143° |
| 2026-05-04 13:25 | 49.73239 | 0.77637 | 38988 ft | 445 kts | 143° |
| 2026-05-04 13:25 | 49.68437 | 0.83654 | 38985 ft | 446 kts | 143° |
| 2026-05-04 13:26 | 49.63603 | 0.89693 | 38983 ft | 446 kts | 143° |
| 2026-05-04 13:26 | 49.58799 | 0.95678 | 38985 ft | 446 kts | 143° |
| 2026-05-04 13:27 | 49.53966 | 1.01686 | 38987 ft | 446 kts | 143° |
| 2026-05-04 13:27 | 49.49192 | 1.07607 | 38988 ft | 446 kts | 143° |
| 2026-05-04 13:28 | 49.44356 | 1.13585 | 38993 ft | 446 kts | 143° |
| 2026-05-04 13:28 | 49.39507 | 1.19566 | 38994 ft | 446 kts | 143° |
| 2026-05-04 13:29 | 49.34702 | 1.25476 | 38993 ft | 446 kts | 143° |
| 2026-05-04 13:29 | 49.29847 | 1.31434 | 38994 ft | 447 kts | 143° |
| 2026-05-04 13:30 | 49.25069 | 1.37287 | 38994 ft | 446 kts | 144° |
| 2026-05-04 13:30 | 49.20201 | 1.43226 | 38973 ft | 447 kts | 144° |
| 2026-05-04 13:31 | 49.15351 | 1.49135 | 38962 ft | 444 kts | 144° |
| 2026-05-04 13:31 | 49.10605 | 1.54900 | 38965 ft | 445 kts | 144° |
| 2026-05-04 13:32 | 49.05958 | 1.60532 | 38959 ft | 445 kts | 144° |
| 2026-05-04 13:32 | 49.01137 | 1.66362 | 38960 ft | 444 kts | 144° |
| 2026-05-04 13:33 | 48.96282 | 1.72214 | 38959 ft | 444 kts | 144° |
| 2026-05-04 13:33 | 48.91444 | 1.78032 | 38951 ft | 442 kts | 145° |
| 2026-05-04 13:34 | 48.86635 | 1.83800 | 38952 ft | 442 kts | 145° |
| 2026-05-04 13:34 | 48.81804 | 1.89579 | 38960 ft | 442 kts | 145° |
| 2026-05-04 13:35 | 48.74526 | 1.98258 | 38974 ft | 444 kts | 145° |
| 2026-05-04 13:36 | 48.69672 | 2.04030 | 38971 ft | 443 kts | 145° |
| 2026-05-04 13:36 | 48.64808 | 2.09799 | 38973 ft | 444 kts | 145° |
| 2026-05-04 13:37 | 48.59952 | 2.15544 | 38962 ft | 442 kts | 145° |
| 2026-05-04 13:37 | 48.55288 | 2.21523 | 38959 ft | 443 kts | 138° |
| 2026-05-04 13:38 | 48.50936 | 2.28170 | 38957 ft | 445 kts | 138° |
| 2026-05-04 13:38 | 48.46608 | 2.34757 | 38959 ft | 444 kts | 138° |
| 2026-05-04 13:38 | 48.44637 | 2.38321 | 38957 ft | 449 kts | 126° |
| 2026-05-04 13:39 | 48.43157 | 2.42501 | 38960 ft | 455 kts | 117° |
| 2026-05-04 13:39 | 48.40403 | 2.51029 | 38958 ft | 448 kts | 130° |
| 2026-05-04 13:39 | 48.38357 | 2.54499 | 38962 ft | 441 kts | 142° |
| 2026-05-04 13:40 | 48.35922 | 2.57174 | 38958 ft | 435 kts | 153° |
| 2026-05-04 13:40 | 48.30507 | 2.61156 | 38968 ft | 432 kts | 159° |
| 2026-05-04 13:41 | 48.24987 | 2.64809 | 38968 ft | 432 kts | 159° |
| 2026-05-04 13:41 | 48.19617 | 2.68676 | 38972 ft | 435 kts | 155° |
| 2026-05-04 13:42 | 48.11611 | 2.75141 | 38973 ft | 435 kts | 155° |
| 2026-05-04 13:42 | 48.06269 | 2.79132 | 38960 ft | 430 kts | 160° |
| 2026-05-04 13:43 | 48.00742 | 2.82629 | 38959 ft | 430 kts | 160° |
| 2026-05-04 13:43 | 47.95250 | 2.86109 | 38958 ft | 431 kts | 160° |
| 2026-05-04 13:44 | 47.89724 | 2.89611 | 38967 ft | 431 kts | 160° |
| 2026-05-04 13:44 | 47.84222 | 2.93093 | 38956 ft | 431 kts | 160° |
| 2026-05-04 13:45 | 47.78724 | 2.96564 | 38961 ft | 430 kts | 160° |
| 2026-05-04 13:45 | 47.73220 | 3.00031 | 38950 ft | 431 kts | 161° |
| 2026-05-04 13:46 | 47.67684 | 3.03508 | 38955 ft | 432 kts | 161° |
| 2026-05-04 13:46 | 47.62261 | 3.06907 | 38958 ft | 432 kts | 161° |
| 2026-05-04 13:47 | 47.56724 | 3.10371 | 38960 ft | 432 kts | 161° |
| 2026-05-04 13:47 | 47.51180 | 3.13831 | 38957 ft | 432 kts | 161° |
| 2026-05-04 13:48 | 47.45667 | 3.17261 | 38959 ft | 432 kts | 161° |
| 2026-05-04 13:48 | 47.40109 | 3.20711 | 38960 ft | 432 kts | 161° |
| 2026-05-04 13:49 | 47.34552 | 3.24154 | 38959 ft | 432 kts | 161° |
| 2026-05-04 13:49 | 47.29062 | 3.27548 | 38961 ft | 432 kts | 161° |
| 2026-05-04 13:50 | 47.23505 | 3.30975 | 38952 ft | 432 kts | 161° |
| 2026-05-04 13:50 | 47.17991 | 3.34367 | 38965 ft | 432 kts | 161° |
| 2026-05-04 13:51 | 47.12439 | 3.37775 | 38966 ft | 432 kts | 162° |
| 2026-05-04 13:51 | 47.06920 | 3.41157 | 38975 ft | 431 kts | 162° |
| 2026-05-04 13:52 | 46.98630 | 3.46218 | 38969 ft | 431 kts | 162° |
| 2026-05-04 13:53 | 46.93101 | 3.49586 | 38969 ft | 430 kts | 162° |
| 2026-05-04 13:53 | 46.87566 | 3.52951 | 38963 ft | 428 kts | 162° |
| 2026-05-04 13:54 | 46.80231 | 3.57396 | 38963 ft | 428 kts | 162° |
| 2026-05-04 13:54 | 46.75053 | 3.61749 | 38964 ft | 439 kts | 146° |
| 2026-05-04 13:55 | 46.72815 | 3.64819 | 38966 ft | 445 kts | 136° |
| 2026-05-04 13:55 | 46.69393 | 3.72466 | 38966 ft | 458 kts | 118° |
| 2026-05-04 13:55 | 46.68333 | 3.76822 | 38970 ft | 464 kts | 109° |
| 2026-05-04 13:56 | 46.66805 | 3.85982 | 38974 ft | 465 kts | 108° |
| 2026-05-04 13:57 | 46.64462 | 3.99699 | 38974 ft | 466 kts | 109° |
| 2026-05-04 13:58 | 46.61283 | 4.17960 | 38969 ft | 467 kts | 109° |
| 2026-05-04 13:58 | 46.58877 | 4.31668 | 38979 ft | 468 kts | 109° |
| 2026-05-04 13:59 | 46.57254 | 4.40860 | 38994 ft | 469 kts | 109° |
| 2026-05-04 14:00 | 46.54806 | 4.54631 | 39005 ft | 469 kts | 109° |
| 2026-05-04 14:00 | 46.52376 | 4.68200 | 39015 ft | 469 kts | 109° |
| 2026-05-04 14:01 | 46.50754 | 4.77202 | 39016 ft | 469 kts | 109° |
| 2026-05-04 14:02 | 46.48274 | 4.90875 | 39009 ft | 470 kts | 109° |
| 2026-05-04 14:02 | 46.46607 | 5.00010 | 39014 ft | 469 kts | 109° |
| 2026-05-04 14:03 | 46.44941 | 5.09100 | 39014 ft | 470 kts | 110° |
| 2026-05-04 14:03 | 46.43262 | 5.18226 | 39015 ft | 470 kts | 110° |
| 2026-05-04 14:04 | 46.40728 | 5.31915 | 39010 ft | 471 kts | 110° |
| 2026-05-04 14:04 | 46.38498 | 5.40651 | 39021 ft | 464 kts | 122° |
| 2026-05-04 14:05 | 46.35159 | 5.48283 | 39032 ft | 455 kts | 134° |
| 2026-05-04 14:05 | 46.33146 | 5.51725 | 39033 ft | 453 kts | 136° |
| 2026-05-04 14:06 | 46.29089 | 5.58581 | 39035 ft | 453 kts | 136° |
| 2026-05-04 14:06 | 46.25082 | 5.65362 | 39029 ft | 454 kts | 136° |
| 2026-05-04 14:07 | 46.20999 | 5.72252 | 39036 ft | 455 kts | 136° |
| 2026-05-04 14:07 | 46.16995 | 5.78986 | 39056 ft | 455 kts | 136° |
| 2026-05-04 14:08 | 46.12969 | 5.85741 | 39068 ft | 457 kts | 136° |
| 2026-05-04 14:08 | 46.08834 | 5.92658 | 39086 ft | 457 kts | 136° |
| 2026-05-04 14:09 | 46.02636 | 6.03001 | 39070 ft | 455 kts | 136° |
| 2026-05-04 14:10 | 45.96412 | 6.13347 | 39075 ft | 457 kts | 136° |
| 2026-05-04 14:10 | 45.92290 | 6.20178 | 39075 ft | 456 kts | 136° |
| 2026-05-04 14:11 | 45.88152 | 6.27017 | 39072 ft | 456 kts | 136° |
| 2026-05-04 14:11 | 45.81891 | 6.37114 | 39064 ft | 455 kts | 141° |
| 2026-05-04 14:12 | 45.77112 | 6.42931 | 39051 ft | 446 kts | 150° |
| 2026-05-04 14:13 | 45.69519 | 6.50610 | 39041 ft | 444 kts | 151° |
| 2026-05-04 14:13 | 45.64588 | 6.55617 | 39062 ft | 445 kts | 150° |
| 2026-05-04 14:14 | 45.59539 | 6.60728 | 39089 ft | 449 kts | 150° |
| 2026-05-04 14:14 | 45.51887 | 6.68464 | 39089 ft | 451 kts | 150° |
| 2026-05-04 14:15 | 45.41640 | 6.78780 | 39121 ft | 452 kts | 150° |
| 2026-05-04 14:16 | 45.34272 | 6.86172 | 39142 ft | 450 kts | 150° |
| 2026-05-04 14:17 | 45.26751 | 6.93821 | 39137 ft | 453 kts | 146° |
| 2026-05-04 14:18 | 45.19806 | 7.03119 | 39126 ft | 458 kts | 141° |
| 2026-05-04 14:19 | 45.10830 | 7.15737 | 39084 ft | 459 kts | 136° |
| 2026-05-04 14:19 | 45.06985 | 7.23025 | 39103 ft | 465 kts | 130° |
| 2026-05-04 14:20 | 45.03281 | 7.30527 | 39105 ft | 467 kts | 130° |
| 2026-05-04 14:20 | 44.99586 | 7.37941 | 39122 ft | 465 kts | 131° |
| 2026-05-04 14:21 | 44.93126 | 7.47882 | 39121 ft | 459 kts | 141° |
| 2026-05-04 14:21 | 44.88606 | 7.54171 | 39125 ft | 460 kts | 141° |
| 2026-05-04 14:22 | 44.84103 | 7.60456 | 39120 ft | 461 kts | 141° |
| 2026-05-04 14:22 | 44.79567 | 7.66773 | 39115 ft | 460 kts | 141° |
| 2026-05-04 14:23 | 44.72738 | 7.76248 | 39100 ft | 461 kts | 141° |
| 2026-05-04 14:24 | 44.68235 | 7.82479 | 39103 ft | 461 kts | 141° |
| 2026-05-04 14:24 | 44.63708 | 7.88727 | 39106 ft | 461 kts | 141° |
| 2026-05-04 14:25 | 44.59446 | 7.94595 | 39104 ft | 461 kts | 141° |
| 2026-05-04 14:25 | 44.52639 | 8.03943 | 39100 ft | 463 kts | 141° |
| 2026-05-04 14:26 | 44.48032 | 8.10251 | 39097 ft | 461 kts | 141° |
| 2026-05-04 14:26 | 44.43517 | 8.16419 | 39097 ft | 463 kts | 141° |
| 2026-05-04 14:27 | 44.38895 | 8.22719 | 39097 ft | 462 kts | 141° |
| 2026-05-04 14:27 | 44.34295 | 8.28976 | 39091 ft | 461 kts | 141° |
| 2026-05-04 14:28 | 44.29732 | 8.35167 | 39069 ft | 460 kts | 142° |
| 2026-05-04 14:28 | 44.25099 | 8.41434 | 39108 ft | 465 kts | 141° |
| 2026-05-04 14:29 | 44.15866 | 8.53890 | 39097 ft | 464 kts | 142° |
| 2026-05-04 14:30 | 44.11211 | 8.60147 | 39094 ft | 464 kts | 142° |
| 2026-05-04 14:31 | 44.04249 | 8.69480 | 39078 ft | 465 kts | 142° |
| 2026-05-04 14:32 | 43.94904 | 8.81951 | 39082 ft | 468 kts | 142° |
| 2026-05-04 14:32 | 43.90195 | 8.88217 | 39091 ft | 469 kts | 142° |
| 2026-05-04 14:33 | 43.85689 | 8.94201 | 39072 ft | 470 kts | 142° |
| 2026-05-04 14:33 | 43.80991 | 9.00423 | 39074 ft | 469 kts | 142° |
| 2026-05-04 14:34 | 43.76250 | 9.06687 | 39064 ft | 470 kts | 142° |
| 2026-05-04 14:34 | 43.71505 | 9.12937 | 39063 ft | 473 kts | 142° |
| 2026-05-04 14:35 | 43.66766 | 9.19172 | 39062 ft | 472 kts | 142° |
| 2026-05-04 14:35 | 43.62010 | 9.25417 | 39047 ft | 471 kts | 142° |
| 2026-05-04 14:36 | 43.57265 | 9.31629 | 39046 ft | 470 kts | 142° |
| 2026-05-04 14:36 | 43.52543 | 9.37796 | 39054 ft | 470 kts | 142° |
| 2026-05-04 14:37 | 43.47754 | 9.44034 | 39058 ft | 474 kts | 142° |
| 2026-05-04 14:37 | 43.42949 | 9.50279 | 39047 ft | 478 kts | 142° |
| 2026-05-04 14:38 | 43.38094 | 9.56579 | 39061 ft | 480 kts | 142° |
| 2026-05-04 14:38 | 43.33252 | 9.62850 | 39059 ft | 479 kts | 142° |
| 2026-05-04 14:39 | 43.28424 | 9.69085 | 39068 ft | 479 kts | 142° |
| 2026-05-04 14:39 | 43.23581 | 9.75324 | 39067 ft | 480 kts | 142° |
| 2026-05-04 14:40 | 43.16285 | 9.84697 | 39065 ft | 479 kts | 142° |
| 2026-05-04 14:40 | 43.11431 | 9.90915 | 39071 ft | 480 kts | 142° |